Time;durP1;ratioP1;P1;durP2;ratioP2;P2;SDS_P1;SDS_P2;PMS_P1;PMS_P2;Temp;Humidity;BMP_temperature;BMP_pressure;BME280_temperature;BME280_humidity;BME280_pressure;Samples;Min_cycle;Max_cycle;Signal;HPM_P1;HPM_P2
2022/12/01 00:02:32;;;;;;;20.10;13.10;;;;;;;2.38;75.91;101973.73;104290;1324;36122;-70
2022/12/01 00:05:06;;;;;;;13.90;10.20;;;;;;;2.37;75.89;101981.13;104286;1325;38506;-71
2022/12/01 00:07:41;;;;;;;15.10;10.90;;;;;;;2.37;75.92;101981.64;104330;1321;37310;-71
2022/12/01 00:10:28;;;;;;;11.60;9.20;;;;;;;2.34;75.80;101981.06;104320;1321;38293;-69
2022/12/01 00:13:04;;;;;;;11.80;9.20;;;;;;;2.32;75.94;101981.39;104309;1321;37044;-70
2022/12/01 00:15:41;;;;;;;15.80;8.90;;;;;;;2.37;76.24;101983.17;104287;1317;38446;-69
2022/12/01 00:18:15;;;;;;;14.00;10.20;;;;;;;2.39;76.20;101977.38;104286;1322;36566;-70
2022/12/01 00:20:54;;;;;;;16.90;9.90;;;;;;;2.41;76.23;101982.42;104047;1326;36935;-70
2022/12/01 00:23:30;;;;;;;12.90;9.20;;;;;;;2.39;76.21;101981.86;104343;1322;37354;-71
2022/12/01 00:26:09;;;;;;;12.90;9.80;;;;;;;2.36;75.94;101979.89;104316;1322;37147;-69
2022/12/01 00:28:43;;;;;;;13.30;9.40;;;;;;;2.33;76.05;101988.96;104316;1321;36969;-68
2022/12/01 00:31:17;;;;;;;10.70;9.00;;;;;;;2.36;76.31;101987.30;104283;1322;38370;-72
2022/12/01 00:33:51;;;;;;;14.80;10.20;;;;;;;2.40;76.24;101988.92;104338;1321;37208;-71
2022/12/01 00:36:25;;;;;;;15.50;9.70;;;;;;;2.31;76.07;101981.52;104310;1322;37587;-71
2022/12/01 00:38:59;;;;;;;10.20;8.70;;;;;;;2.25;76.31;101982.91;104347;1321;38196;-71
2022/12/01 00:41:40;;;;;;;12.70;8.90;;;;;;;2.22;76.36;101985.64;104288;1322;37136;-69
2022/12/01 00:44:19;;;;;;;12.50;8.40;;;;;;;2.19;76.41;101978.84;103696;1318;914542;-71
2022/12/01 00:46:56;;;;;;;12.80;9.70;;;;;;;2.19;76.57;101974.54;104059;1327;37383;-71
2022/12/01 00:49:34;;;;;;;11.80;8.90;;;;;;;2.20;76.64;101973.35;104304;1318;37090;-71
2022/12/01 00:52:13;;;;;;;12.90;9.20;;;;;;;2.23;76.85;101969.11;104315;1321;37527;-69
2022/12/01 00:54:47;;;;;;;19.00;10.60;;;;;;;2.22;76.80;101968.94;104295;1321;37097;-71
2022/12/01 00:57:23;;;;;;;10.80;9.30;;;;;;;2.24;76.80;101970.33;104285;1322;37090;-70
2022/12/01 00:59:58;;;;;;;15.40;10.50;;;;;;;2.24;76.84;101967.41;104315;1321;38221;-71
2022/12/01 01:02:33;;;;;;;13.60;9.30;;;;;;;2.27;76.82;101962.48;104272;1319;36027;-71
2022/12/01 01:05:11;;;;;;;11.60;9.90;;;;;;;2.29;76.86;101962.54;103652;1324;915058;-70
2022/12/01 01:07:47;;;;;;;12.10;9.10;;;;;;;2.30;77.07;101962.02;104287;1321;37038;-72
2022/12/01 01:10:21;;;;;;;20.50;9.80;;;;;;;2.25;76.81;101957.80;104034;1324;36187;-71
2022/12/01 01:12:55;;;;;;;14.30;9.80;;;;;;;2.23;76.97;101956.72;104297;1318;36688;-71
2022/12/01 01:15:31;;;;;;;12.00;9.30;;;;;;;2.20;76.81;101956.64;104298;1318;36506;-71
2022/12/01 01:18:08;;;;;;;13.00;9.20;;;;;;;2.12;76.89;101950.98;104300;1321;37018;-70
2022/12/01 01:20:47;;;;;;;13.80;10.00;;;;;;;2.13;77.45;101950.29;104358;1318;36366;-69
2022/12/01 01:23:21;;;;;;;14.70;10.70;;;;;;;2.17;77.31;101955.05;104192;1319;174672;-71
2022/12/01 01:26:02;;;;;;;12.90;9.30;;;;;;;2.16;77.27;101956.54;104289;1322;37039;-71
2022/12/01 01:28:40;;;;;;;12.00;9.30;;;;;;;2.10;77.29;101956.09;104305;1318;38874;-72
2022/12/01 01:31:23;;;;;;;11.30;9.20;;;;;;;2.11;77.44;101950.41;104308;1321;37082;-72
2022/12/01 01:34:03;;;;;;;13.10;9.60;;;;;;;2.12;77.39;101948.20;104312;1318;36651;-71
2022/12/01 01:36:42;;;;;;;10.90;8.40;;;;;;;2.16;77.68;101950.02;104320;1322;37089;-71
2022/12/01 01:39:17;;;;;;;14.30;10.60;;;;;;;2.17;77.54;101949.70;104302;1318;37039;-71
2022/12/01 01:41:52;;;;;;;14.10;9.80;;;;;;;2.14;77.56;101949.98;104298;1324;36999;-72
2022/12/01 01:44:52;;;;;;;11.80;8.60;;;;;;;2.15;77.62;101954.12;104298;1317;36697;-70
2022/12/01 01:47:31;;;;;;;12.80;9.10;;;;;;;2.15;77.57;101957.73;104332;1321;37673;-70
2022/12/01 01:50:12;;;;;;;13.00;9.60;;;;;;;2.19;77.68;101952.67;104281;1321;36136;-70
2022/12/01 01:52:51;;;;;;;11.50;9.30;;;;;;;2.23;77.71;101954.48;104323;1318;38217;-71
2022/12/01 01:55:29;;;;;;;11.60;10.10;;;;;;;2.16;77.54;101955.02;104271;1318;36698;-71
2022/12/01 01:58:04;;;;;;;12.30;9.20;;;;;;;2.14;77.79;101953.93;104301;1321;37117;-71
2022/12/01 02:00:37;;;;;;;14.50;9.40;;;;;;;2.15;77.70;101953.95;104319;1318;37330;-71
2022/12/01 02:03:12;;;;;;;10.80;9.20;;;;;;;2.09;77.71;101953.47;104323;1319;37000;-71
2022/12/01 02:05:46;;;;;;;10.90;9.30;;;;;;;2.03;77.78;101954.73;104298;1324;36679;-71
2022/12/01 02:08:21;;;;;;;9.60;8.60;;;;;;;2.08;78.11;101954.32;104276;1318;37276;-69
2022/12/01 02:11:32;;;;;;;11.90;10.10;;;;;;;2.10;78.22;101957.63;104315;1318;37735;-71
2022/12/01 02:14:14;;;;;;;13.30;10.30;;;;;;;2.09;78.14;101956.91;104284;1322;37425;-69
2022/12/01 02:16:53;;;;;;;14.40;10.50;;;;;;;2.06;78.14;101960.31;104317;1321;37116;-71
2022/12/01 02:20:00;;;;;;;10.50;8.70;;;;;;;2.06;78.12;101955.98;104307;1318;37172;-71
2022/12/01 02:22:42;;;;;;;10.60;9.50;;;;;;;2.02;78.17;101956.78;104286;1321;37045;-69
2022/12/01 02:25:28;;;;;;;12.50;9.60;;;;;;;1.97;78.33;101952.88;104293;1322;37620;-71
2022/12/01 02:28:25;;;;;;;13.50;9.10;;;;;;;1.94;78.53;101950.73;104334;1324;37062;-71
2022/12/01 02:31:01;;;;;;;12.90;9.70;;;;;;;1.93;78.76;101950.73;104297;1318;37086;-70
2022/12/01 02:33:39;;;;;;;14.50;10.00;;;;;;;1.93;78.80;101945.56;104339;1321;37167;-72
2022/12/01 02:36:21;;;;;;;11.90;9.80;;;;;;;1.90;78.78;101946.17;104306;1325;37434;-72
2022/12/01 02:38:57;;;;;;;10.90;8.80;;;;;;;1.91;79.03;101944.12;104341;1321;38275;-71
2022/12/01 02:41:33;;;;;;;12.80;10.50;;;;;;;1.94;79.08;101945.92;104304;1318;37818;-71
2022/12/01 02:44:08;;;;;;;13.80;10.10;;;;;;;1.95;79.15;101943.35;104299;1319;37116;-71
2022/12/01 02:46:44;;;;;;;13.20;9.70;;;;;;;1.97;79.46;101942.36;104275;1318;36656;-69
2022/12/01 02:49:22;;;;;;;12.20;9.70;;;;;;;1.90;79.29;101941.52;104292;1322;36995;-70
2022/12/01 02:51:59;;;;;;;11.30;10.10;;;;;;;1.83;79.28;101944.63;104272;1321;36995;-72
2022/12/01 02:54:33;;;;;;;10.70;8.70;;;;;;;1.82;79.52;101941.67;104301;1319;37125;-72
2022/12/01 02:57:09;;;;;;;10.90;8.90;;;;;;;1.81;79.76;101944.61;104293;1318;37301;-70
2022/12/01 02:59:43;;;;;;;12.60;10.50;;;;;;;1.78;79.81;101943.00;104313;1318;37001;-71
2022/12/01 03:02:23;;;;;;;13.40;10.50;;;;;;;1.82;80.00;101941.18;103669;1319;915114;-71
2022/12/01 03:05:01;;;;;;;15.20;10.90;;;;;;;1.88;80.09;101943.21;104304;1319;36572;-72
2022/12/01 03:07:51;;;;;;;11.10;9.90;;;;;;;1.90;80.03;101943.41;104301;1319;37111;-72
2022/12/01 03:10:30;;;;;;;12.90;11.40;;;;;;;1.90;79.89;101939.27;104302;1321;36994;-69
2022/12/01 03:13:12;;;;;;;12.70;9.90;;;;;;;1.92;79.93;101938.82;104315;1321;38449;-71
2022/12/01 03:16:01;;;;;;;12.70;10.20;;;;;;;1.97;79.96;101935.83;104288;1318;37470;-72
2022/12/01 03:18:41;;;;;;;14.70;11.40;;;;;;;2.03;80.08;101933.73;104283;1318;37280;-71
2022/12/01 03:21:20;;;;;;;13.50;10.60;;;;;;;2.01;80.04;101934.20;104293;1318;37097;-71
2022/12/01 03:23:58;;;;;;;15.00;11.00;;;;;;;1.94;79.87;101936.13;104286;1321;37362;-71
2022/12/01 03:26:35;;;;;;;12.40;10.20;;;;;;;1.93;79.92;101933.67;104284;1318;37111;-71
2022/12/01 03:29:13;;;;;;;12.80;10.60;;;;;;;1.93;79.96;101932.81;104289;1322;37016;-71
2022/12/01 03:31:52;;;;;;;12.40;10.40;;;;;;;1.93;79.98;101929.73;104305;1319;37081;-70
2022/12/01 03:34:29;;;;;;;13.70;11.20;;;;;;;1.98;80.21;101932.25;104321;1322;37005;-71
2022/12/01 03:37:09;;;;;;;13.90;11.50;;;;;;;1.99;80.12;101930.20;104328;1318;37113;-71
2022/12/01 03:39:43;;;;;;;15.80;12.00;;;;;;;1.96;80.08;101935.80;104323;1322;37021;-69
2022/12/01 03:42:22;;;;;;;15.80;11.70;;;;;;;1.93;80.00;101934.89;104310;1324;37351;-72
2022/12/01 03:45:03;;;;;;;13.20;11.00;;;;;;;1.88;80.17;101934.09;104215;1324;174692;-71
2022/12/01 03:47:38;;;;;;;16.50;12.60;;;;;;;1.86;80.22;101933.84;104295;1324;36526;-71
2022/12/01 03:50:17;;;;;;;16.80;12.60;;;;;;;1.84;80.27;101927.79;104284;1322;36045;-71
2022/12/01 03:53:00;;;;;;;16.90;12.60;;;;;;;1.84;80.44;101931.92;104317;1321;37104;-72
2022/12/01 03:55:41;;;;;;;19.10;13.10;;;;;;;1.82;80.43;101935.49;104328;1319;37581;-70
2022/12/01 03:58:19;;;;;;;17.60;13.20;;;;;;;1.80;80.57;101929.09;104325;1319;37123;-69
2022/12/01 04:00:56;;;;;;;17.80;13.40;;;;;;;1.76;80.33;101931.05;104281;1318;37020;-70
2022/12/01 04:03:30;;;;;;;17.20;12.60;;;;;;;1.76;80.44;101928.64;104323;1324;38400;-71
2022/12/01 04:06:12;;;;;;;15.70;11.90;;;;;;;1.78;80.56;101929.05;104275;1318;37119;-70
2022/12/01 04:08:48;;;;;;;16.60;13.60;;;;;;;1.76;80.58;101927.45;104316;1321;37125;-70
2022/12/01 04:14:39;;;;;;;17.40;13.30;;;;;;;1.78;80.82;101931.63;103690;1324;36905;-71
2022/12/01 04:17:34;;;;;;;18.20;12.90;;;;;;;1.77;80.78;101932.12;104311;1318;37212;-71
2022/12/01 04:20:10;;;;;;;17.10;12.70;;;;;;;1.76;80.60;101934.16;104286;1324;37025;-70
2022/12/01 04:22:44;;;;;;;22.70;13.80;;;;;;;1.78;80.73;101928.00;104352;1322;36501;-70
2022/12/01 04:25:18;;;;;;;18.00;13.10;;;;;;;1.80;80.73;101929.77;104263;1318;36067;-69
2022/12/01 04:27:54;;;;;;;26.00;15.80;;;;;;;1.81;80.78;101926.00;104314;1318;37010;-71
2022/12/01 04:30:34;;;;;;;32.80;17.70;;;;;;;1.79;80.72;101928.38;104301;1318;37705;-69
2022/12/01 04:33:13;;;;;;;34.10;20.40;;;;;;;1.78;80.84;101929.55;104286;1319;37111;-71
2022/12/01 04:35:57;;;;;;;32.80;18.70;;;;;;;1.74;80.64;101934.63;103657;1321;912692;-71
2022/12/01 04:38:31;;;;;;;25.00;16.00;;;;;;;1.72;80.78;101934.90;104302;1318;36604;-70
2022/12/01 04:41:11;;;;;;;42.70;23.70;;;;;;;1.75;80.92;101933.79;104276;1318;37137;-71
2022/12/01 04:43:46;;;;;;;19.10;12.90;;;;;;;1.82;81.05;101933.59;104287;1319;37008;-72
2022/12/01 04:46:20;;;;;;;42.10;24.70;;;;;;;1.86;80.86;101934.70;104137;1318;37113;-71
2022/12/01 04:48:55;;;;;;;38.80;23.00;;;;;;;1.84;80.72;101934.34;104309;1318;37110;-71
2022/12/01 04:51:28;;;;;;;18.90;13.70;;;;;;;1.86;80.97;101934.03;104318;1324;36805;-70
2022/12/01 04:54:04;;;;;;;33.40;20.30;;;;;;;1.89;80.85;101937.20;104287;1321;36336;-71
2022/12/01 04:56:40;;;;;;;19.10;13.40;;;;;;;1.87;80.68;101937.83;104291;1318;37022;-69
2022/12/01 04:59:15;;;;;;;19.10;14.90;;;;;;;1.88;80.80;101941.49;104310;1318;37280;-71
2022/12/01 05:01:50;;;;;;;24.90;17.30;;;;;;;1.94;80.95;101942.65;104251;1315;37239;-71
2022/12/01 05:04:30;;;;;;;23.00;15.30;;;;;;;1.99;80.76;101945.00;104135;1318;37168;-70
2022/12/01 05:07:04;;;;;;;30.60;18.30;;;;;;;1.98;80.64;101945.31;104151;1319;36778;-70
2022/12/01 05:09:38;;;;;;;27.50;15.70;;;;;;;1.96;80.66;101942.36;104163;1318;37019;-71
2022/12/01 05:12:16;;;;;;;22.10;15.10;;;;;;;1.97;80.53;101947.19;104105;1318;37091;-70
2022/12/01 05:14:50;;;;;;;19.10;13.30;;;;;;;1.99;80.61;101946.72;104150;1326;37076;-69
2022/12/01 05:17:25;;;;;;;16.70;13.80;;;;;;;1.99;80.40;101949.80;104128;1324;37117;-70
2022/12/01 05:22:52;;;;;;;18.00;13.80;;;;;;;1.97;80.60;101942.73;104156;1318;37130;-70
2022/12/01 05:25:32;;;;;;;28.50;16.00;;;;;;;2.01;80.63;101942.63;104127;1318;37089;-69
2022/12/01 05:28:07;;;;;;;24.60;13.80;;;;;;;1.97;80.22;101943.56;104144;1319;37097;-70
2022/12/01 05:30:45;;;;;;;24.80;16.40;;;;;;;1.93;80.21;101944.17;104147;1318;37116;-69
2022/12/01 05:33:22;;;;;;;26.10;17.00;;;;;;;1.91;80.41;101945.86;104162;1318;36990;-73
2022/12/01 05:36:00;;;;;;;26.50;16.60;;;;;;;1.93;80.58;101945.20;104115;1318;37242;-73
2022/12/01 05:38:37;;;;;;;23.70;14.50;;;;;;;1.92;80.48;101945.88;104138;1318;38189;-72
2022/12/01 05:41:11;;;;;;;17.90;13.60;;;;;;;1.89;80.21;101946.66;104157;1318;37141;-71
2022/12/01 05:43:46;;;;;;;25.80;16.40;;;;;;;1.88;80.33;101946.66;104169;1318;36487;-71
2022/12/01 05:46:20;;;;;;;20.90;15.20;;;;;;;1.89;80.38;101945.13;104148;1325;37962;-70
2022/12/01 05:48:54;;;;;;;25.10;15.40;;;;;;;1.94;80.63;101944.71;104129;1318;37068;-71
2022/12/01 05:51:28;;;;;;;20.60;14.30;;;;;;;1.96;80.47;101943.72;104009;1318;36865;-71
2022/12/01 05:54:03;;;;;;;24.40;16.40;;;;;;;1.99;80.46;101948.61;104116;1318;36683;-69
2022/12/01 05:56:37;;;;;;;17.70;11.50;;;;;;;1.97;80.20;101946.17;104123;1318;37074;-70
2022/12/01 05:59:11;;;;;;;31.90;19.60;;;;;;;1.94;80.11;101946.27;104026;1318;174395;-71
2022/12/01 06:01:48;;;;;;;23.60;15.10;;;;;;;1.95;80.15;101945.07;104102;1324;37110;-71
2022/12/01 06:04:23;;;;;;;19.80;13.50;;;;;;;1.94;80.05;101951.44;104111;1319;39355;-69
2022/12/01 06:06:57;;;;;;;21.40;13.80;;;;;;;1.96;80.19;101950.77;104108;1318;37285;-71
2022/12/01 06:09:32;;;;;;;21.20;14.10;;;;;;;1.96;80.17;101946.64;104161;1315;37188;-71
2022/12/01 06:12:08;;;;;;;18.00;12.40;;;;;;;1.97;80.14;101951.66;104093;1318;37298;-71
2022/12/01 06:14:42;;;;;;;14.50;10.90;;;;;;;1.93;79.99;101950.20;104164;1318;37397;-69
2022/12/01 06:17:17;;;;;;;29.40;16.30;;;;;;;1.89;79.97;101954.06;104115;1324;37255;-70
2022/12/01 06:19:52;;;;;;;21.40;14.10;;;;;;;1.91;80.05;101952.38;104139;1318;37257;-71
2022/12/01 06:22:30;;;;;;;18.00;13.40;;;;;;;1.96;80.28;101951.98;104146;1318;37067;-69
2022/12/01 06:25:08;;;;;;;21.20;13.20;;;;;;;1.94;79.98;101951.79;104127;1319;37340;-71
2022/12/01 06:27:42;;;;;;;16.00;11.10;;;;;;;1.90;79.99;101949.95;104079;1318;37141;-71
2022/12/01 06:30:19;;;;;;;21.40;13.80;;;;;;;1.88;80.14;101944.23;104100;1326;37407;-69
2022/12/01 06:32:53;;;;;;;17.90;12.10;;;;;;;1.90;80.26;101944.62;104143;1318;37123;-70
2022/12/01 06:35:27;;;;;;;19.80;13.10;;;;;;;1.93;80.05;101941.94;104116;1318;37301;-69
2022/12/01 06:38:00;;;;;;;22.00;13.10;;;;;;;1.94;80.25;101943.00;104133;1324;37078;-71
2022/12/01 06:40:35;;;;;;;13.90;11.80;;;;;;;1.95;80.18;101945.43;104127;1318;37138;-70
2022/12/01 06:43:09;;;;;;;16.70;12.80;;;;;;;1.94;80.13;101943.85;104131;1318;36611;-71
2022/12/01 06:45:42;;;;;;;19.20;11.40;;;;;;;1.92;80.23;101943.14;104143;1310;37178;-71
2022/12/01 06:48:17;;;;;;;14.80;10.70;;;;;;;1.89;79.99;101944.42;104177;1318;37076;-71
2022/12/01 06:50:51;;;;;;;18.60;11.60;;;;;;;1.85;80.00;101945.36;104143;1318;37105;-71
2022/12/01 06:53:26;;;;;;;21.30;12.70;;;;;;;1.88;80.12;101939.40;104124;1318;37911;-70
2022/12/01 06:56:12;;;;;;;17.40;12.60;;;;;;;1.87;80.01;101937.31;104114;1318;36281;-69
2022/12/01 06:58:46;;;;;;;16.10;11.90;;;;;;;1.88;80.40;101939.93;104166;1318;37189;-69
2022/12/01 07:01:25;;;;;;;16.40;9.90;;;;;;;1.94;80.39;101944.02;104154;1318;37200;-71
2022/12/01 07:04:05;;;;;;;15.70;11.70;;;;;;;1.96;80.30;101947.85;104197;1324;37029;-69
2022/12/01 07:06:50;;;;;;;16.70;9.30;;;;;;;1.98;80.36;101945.48;104167;1324;36293;-71
2022/12/01 07:09:26;;;;;;;14.50;11.10;;;;;;;2.01;80.25;101946.08;103822;1317;500010;-70
2022/12/01 07:12:04;;;;;;;18.10;12.70;;;;;;;2.06;80.38;101946.52;104145;1318;37388;-70
2022/12/01 07:14:41;;;;;;;18.40;11.70;;;;;;;2.06;80.05;101945.14;104157;1318;38274;-73
2022/12/01 07:17:21;;;;;;;16.30;11.70;;;;;;;2.01;80.03;101946.27;104177;1324;37060;-70
2022/12/01 07:19:58;;;;;;;18.50;11.70;;;;;;;1.99;80.08;101949.13;104171;1318;37428;-72
2022/12/01 07:22:41;;;;;;;21.30;11.80;;;;;;;1.97;79.98;101944.63;104189;1318;37471;-72
2022/12/01 07:25:17;;;;;;;18.80;13.10;;;;;;;2.00;80.37;101945.02;104167;1318;37000;-72
2022/12/01 07:27:52;;;;;;;20.20;14.10;;;;;;;2.04;80.34;101943.73;104056;1318;174406;-71
2022/12/01 07:30:32;;;;;;;25.70;16.50;;;;;;;2.05;80.36;101945.29;104196;1318;37342;-71
2022/12/01 07:33:12;;;;;;;40.30;16.70;;;;;;;2.09;80.49;101946.07;104192;1324;36989;-72
2022/12/01 07:35:47;;;;;;;18.30;13.60;;;;;;;2.11;80.35;101947.30;104025;1324;173010;-72
2022/12/01 07:38:25;;;;;;;17.20;12.10;;;;;;;2.10;80.13;101947.81;103950;1318;174680;-72
2022/12/01 07:41:10;;;;;;;22.00;14.70;;;;;;;2.08;80.14;101946.92;104033;1318;37145;-70
2022/12/01 07:43:46;;;;;;;30.10;15.30;;;;;;;2.03;80.07;101949.23;103975;1327;37020;-70
2022/12/01 07:46:24;;;;;;;35.00;19.60;;;;;;;2.05;80.36;101949.77;104046;1319;37083;-71
2022/12/01 07:48:59;;;;;;;41.00;22.00;;;;;;;2.05;80.13;101948.58;104099;1318;36758;-69
2022/12/01 07:51:33;;;;;;;26.80;17.10;;;;;;;2.03;80.14;101946.13;104090;1318;37105;-71
2022/12/01 07:54:08;;;;;;;30.20;17.70;;;;;;;2.01;80.10;101946.58;104074;1324;37584;-71
2022/12/01 07:56:43;;;;;;;30.30;17.90;;;;;;;2.05;80.26;101949.26;103943;1324;175163;-71
2022/12/01 07:59:18;;;;;;;33.80;19.00;;;;;;;2.04;80.14;101949.93;104091;1318;37186;-69
2022/12/01 08:01:53;;;;;;;33.60;19.20;;;;;;;2.07;80.33;101946.55;104059;1318;37102;-69
2022/12/01 08:04:30;;;;;;;34.90;20.30;;;;;;;2.12;80.48;101946.83;104021;1318;37426;-71
2022/12/01 08:07:07;;;;;;;20.70;14.60;;;;;;;2.17;80.49;101946.25;104058;1318;37064;-71
2022/12/01 08:09:44;;;;;;;40.10;22.70;;;;;;;2.20;80.31;101945.45;104112;1318;38199;-71
2022/12/01 08:12:19;;;;;;;30.20;18.00;;;;;;;2.20;80.12;101947.69;104073;1318;37125;-71
2022/12/01 08:14:54;;;;;;;43.00;24.10;;;;;;;2.21;80.12;101948.77;104112;1325;38434;-72
2022/12/01 08:17:29;;;;;;;25.60;16.80;;;;;;;2.19;80.05;101945.96;104085;1318;36056;-70
2022/12/01 08:20:14;;;;;;;33.80;17.80;;;;;;;2.17;80.04;101940.05;104058;1326;37356;-70
2022/12/01 08:22:48;;;;;;;37.50;20.50;;;;;;;2.20;80.28;101947.34;104138;1325;36879;-70
2022/12/01 08:25:26;;;;;;;22.70;14.90;;;;;;;2.22;80.18;101947.73;104141;1318;37149;-71
2022/12/01 08:28:01;;;;;;;32.90;18.10;;;;;;;2.28;80.16;101948.21;104124;1326;36163;-71
2022/12/01 08:30:35;;;;;;;26.40;16.70;;;;;;;2.26;80.03;101949.55;104078;1318;37118;-71
2022/12/01 08:33:12;;;;;;;45.10;23.60;;;;;;;2.29;80.27;101945.48;104141;1318;37015;-72
2022/12/01 08:35:47;;;;;;;31.00;18.70;;;;;;;2.32;80.14;101947.28;104065;1326;37361;-70
2022/12/01 08:38:21;;;;;;;32.90;17.80;;;;;;;2.33;79.83;101948.66;104138;1325;37354;-72
2022/12/01 08:40:58;;;;;;;20.70;12.60;;;;;;;2.33;79.91;101954.01;104042;1325;174393;-73
2022/12/01 08:43:32;;;;;;;26.10;17.10;;;;;;;2.38;79.95;101955.31;104122;1326;38685;-72
2022/12/01 08:46:10;;;;;;;33.90;18.60;;;;;;;2.42;79.84;101957.97;104140;1318;37449;-72
2022/12/01 08:48:47;;;;;;;28.00;15.00;;;;;;;2.43;79.50;101959.21;104128;1326;37150;-73
2022/12/01 08:51:21;;;;;;;29.70;17.50;;;;;;;2.40;79.37;101957.57;104107;1318;38589;-73
2022/12/01 08:54:02;;;;;;;21.30;14.50;;;;;;;2.36;79.49;101956.63;104125;1318;38185;-72
2022/12/01 08:56:41;;;;;;;23.50;15.10;;;;;;;2.37;79.39;101959.78;104156;1323;36978;-71
2022/12/01 08:59:15;;;;;;;23.50;14.90;;;;;;;2.38;79.30;101961.69;104155;1325;36043;-71
2022/12/01 09:01:56;;;;;;;26.20;15.50;;;;;;;2.40;79.25;101964.83;104114;1318;37123;-70
2022/12/01 09:04:34;;;;;;;28.00;16.30;;;;;;;2.45;79.22;101968.36;104121;1318;37337;-71
2022/12/01 09:07:13;;;;;;;34.00;17.70;;;;;;;2.44;78.98;101966.80;104097;1324;37241;-72
2022/12/01 09:09:56;;;;;;;34.30;18.90;;;;;;;2.43;79.07;101966.61;104121;1318;37027;-72
2022/12/01 09:12:36;;;;;;;43.60;22.00;;;;;;;2.43;78.86;101965.39;104144;1317;37084;-72
2022/12/01 09:15:14;;;;;;;33.00;17.10;;;;;;;2.41;79.00;101963.80;104136;1318;37020;-72
2022/12/01 09:17:48;;;;;;;25.80;18.00;;;;;;;2.43;79.18;101962.13;104154;1327;37355;-70
2022/12/01 09:20:23;;;;;;;35.40;21.80;;;;;;;2.47;79.32;101964.96;104084;1324;37312;-70
2022/12/01 09:22:58;;;;;;;27.10;16.90;;;;;;;2.50;79.08;101966.40;104148;1318;37007;-70
2022/12/01 09:25:32;;;;;;;26.30;17.00;;;;;;;2.47;78.87;101965.65;104103;1310;36076;-71
2022/12/01 09:28:06;;;;;;;36.20;22.00;;;;;;;2.45;78.99;101963.71;104102;1318;37025;-72
2022/12/01 09:30:41;;;;;;;24.80;16.80;;;;;;;2.44;79.03;101962.31;104087;1322;37110;-70
2022/12/01 09:33:15;;;;;;;24.40;17.00;;;;;;;2.39;78.92;101961.88;104095;1319;37528;-71
2022/12/01 09:35:50;;;;;;;24.00;16.80;;;;;;;2.40;79.18;101955.70;104109;1318;38220;-73
2022/12/01 09:38:24;;;;;;;36.00;23.40;;;;;;;2.44;79.08;101951.81;104119;1318;37117;-71
2022/12/01 09:41:02;;;;;;;32.10;20.30;;;;;;;2.43;79.17;101952.83;104016;1324;38110;-72
2022/12/01 09:43:41;;;;;;;44.60;22.80;;;;;;;2.45;79.20;101953.38;104141;1318;38487;-72
2022/12/01 09:46:19;;;;;;;28.00;18.30;;;;;;;2.43;79.06;101953.16;104103;1325;36430;-72
2022/12/01 09:48:53;;;;;;;27.30;18.20;;;;;;;2.34;78.98;101952.80;104125;1325;36828;-72
2022/12/01 09:51:28;;;;;;;41.70;23.00;;;;;;;2.34;79.27;101956.25;104080;1318;38085;-71
2022/12/01 09:54:03;;;;;;;28.60;18.60;;;;;;;2.38;79.46;101957.55;104104;1318;36716;-74
2022/12/01 09:56:44;;;;;;;30.10;19.00;;;;;;;2.39;79.27;101953.27;104063;1318;37204;-74
2022/12/01 09:59:24;;;;;;;32.40;19.20;;;;;;;2.38;79.41;101948.09;104124;1325;37647;-72
2022/12/01 10:02:02;;;;;;;26.60;17.80;;;;;;;2.36;79.22;101950.79;104091;1319;37029;-73
2022/12/01 10:04:38;;;;;;;32.40;19.20;;;;;;;2.31;79.21;101948.11;104100;1325;37122;-72
2022/12/01 10:07:21;;;;;;;31.00;19.60;;;;;;;2.32;79.42;101947.45;104088;1318;37064;-72
2022/12/01 10:09:57;;;;;;;34.70;20.20;;;;;;;2.35;79.55;101941.29;104084;1318;37109;-71
2022/12/01 10:12:37;;;;;;;36.10;21.70;;;;;;;2.39;79.66;101941.21;104063;1318;36556;-71
2022/12/01 10:15:30;;;;;;;33.30;19.10;;;;;;;2.33;79.22;101941.77;104084;1318;37291;-71
2022/12/01 10:18:16;;;;;;;37.00;21.90;;;;;;;2.22;79.26;101942.07;104118;1306;37141;-71
2022/12/01 10:20:57;;;;;;;32.30;19.10;;;;;;;2.20;79.32;101939.59;104037;1318;37088;-70
2022/12/01 10:23:43;;;;;;;37.50;17.90;;;;;;;2.19;79.53;101940.97;104063;1318;37121;-72
2022/12/01 10:26:25;;;;;;;29.50;18.00;;;;;;;2.23;79.71;101938.30;104105;1318;37049;-72
2022/12/01 10:29:14;;;;;;;25.20;17.20;;;;;;;2.28;80.02;101939.26;104079;1318;35980;-72
2022/12/01 10:31:57;;;;;;;30.90;18.20;;;;;;;2.30;79.90;101934.83;104095;1318;36428;-72
2022/12/01 10:34:35;;;;;;;25.70;16.10;;;;;;;2.22;79.60;101932.42;104105;1318;37115;-71
2022/12/01 10:37:11;;;;;;;23.90;15.30;;;;;;;2.13;79.41;101925.33;104121;1318;36997;-71
2022/12/01 10:39:49;;;;;;;36.10;16.00;;;;;;;2.09;79.79;101922.67;104125;1318;37135;-72
2022/12/01 10:42:35;;;;;;;22.00;13.60;;;;;;;2.10;79.76;101918.90;104044;1319;36235;-73
2022/12/01 10:45:18;;;;;;;19.10;13.40;;;;;;;2.06;79.79;101917.63;104129;1317;37060;-71
2022/12/01 10:48:16;;;;;;;22.40;15.10;;;;;;;2.08;79.85;101918.52;104175;1324;37083;-71
2022/12/01 10:50:53;;;;;;;23.80;16.00;;;;;;;2.08;79.86;101916.79;104072;1326;37615;-73
2022/12/01 10:53:35;;;;;;;33.90;20.00;;;;;;;2.06;79.75;101913.13;104094;1318;37304;-72
2022/12/01 10:56:18;;;;;;;24.90;15.00;;;;;;;2.03;79.73;101910.83;104081;1318;37066;-72
2022/12/01 10:58:57;;;;;;;25.80;16.00;;;;;;;2.03;79.99;101905.50;104084;1326;38973;-73
2022/12/01 11:01:35;;;;;;;22.50;14.70;;;;;;;2.11;80.10;101905.14;104064;1318;37177;-72
2022/12/01 11:04:28;;;;;;;25.50;15.90;;;;;;;2.21;80.19;101904.15;104095;1325;37123;-72
2022/12/01 11:07:14;;;;;;;24.90;15.60;;;;;;;2.27;79.82;101901.89;104104;1324;37022;-70
2022/12/01 11:10:18;;;;;;;29.10;15.70;;;;;;;2.25;79.66;101898.55;104100;1324;36990;-72
2022/12/01 11:13:00;;;;;;;21.00;13.60;;;;;;;2.24;79.50;101897.85;104112;1325;36994;-72
2022/12/01 11:15:38;;;;;;;22.30;14.50;;;;;;;2.25;79.47;101897.34;104106;1318;37025;-70
2022/12/01 11:18:32;;;;;;;23.00;13.70;;;;;;;2.24;79.13;101892.16;104096;1318;36926;-70
2022/12/01 11:21:15;;;;;;;23.10;14.50;;;;;;;2.26;79.22;101889.64;104078;1317;37237;-72
2022/12/01 11:23:55;;;;;;;24.10;15.30;;;;;;;2.30;79.24;101888.84;104119;1322;37342;-72
2022/12/01 11:26:30;;;;;;;;;;;;;;;2.35;79.17;101890.66;104115;1319;38695;-72
2022/12/01 11:29:06;;;;;;;27.00;16.30;;;;;;;2.33;78.85;101893.20;104137;1326;37317;-72
2022/12/01 11:31:45;;;;;;;23.80;15.90;;;;;;;2.26;78.82;101891.02;104093;1318;36716;-72
2022/12/01 11:34:23;;;;;;;21.10;14.00;;;;;;;2.24;78.70;101888.73;104001;1322;174681;-71
2022/12/01 11:37:00;;;;;;;21.60;14.80;;;;;;;2.25;78.76;101888.39;104069;1319;36228;-72
2022/12/01 11:39:37;;;;;;;24.70;15.90;;;;;;;2.24;78.56;101888.03;104121;1323;37316;-70
2022/12/01 11:42:29;;;;;;;27.10;16.00;;;;;;;2.23;78.41;101883.70;104088;1325;37068;-72
2022/12/01 11:45:31;;;;;;;40.40;16.60;;;;;;;2.18;78.47;101888.08;104111;1318;37269;-72
2022/12/01 11:48:18;;;;;;;27.20;17.30;;;;;;;2.17;78.63;101892.02;104097;1323;36991;-72
2022/12/01 11:51:06;;;;;;;30.00;16.40;;;;;;;2.16;78.63;101888.56;104099;1324;36174;-72
2022/12/01 11:53:41;;;;;;;26.70;16.10;;;;;;;2.18;78.58;101893.77;104136;1318;37053;-72
2022/12/01 11:56:24;;;;;;;25.60;16.50;;;;;;;2.19;78.54;101891.20;104100;1318;37304;-71
2022/12/01 11:59:00;;;;;;;30.20;19.80;;;;;;;2.17;78.32;101894.09;104088;1319;36351;-71
2022/12/01 12:01:50;;;;;;;30.10;18.50;;;;;;;2.13;78.30;101889.69;104119;1318;36390;-71
2022/12/01 12:04:40;;;;;;;31.10;17.80;;;;;;;2.07;78.22;101886.30;104118;1318;37105;-72
2022/12/01 12:07:16;;;;;;;29.80;18.70;;;;;;;2.01;78.32;101887.20;104097;1318;36247;-72
2022/12/01 12:10:06;;;;;;;30.10;19.00;;;;;;;2.00;78.70;101885.14;104091;1318;36760;-73